D/T METAR WX W/DIR W/SPE G/SPE TEMP DEWP
9/12/19 12:20 EGPO 091220Z 25004KT 9999 FEW018 05/M00 Q1013 WSW (250°) 4.6mph 5°C 0°C
9/12/19 11:50 EGPO 091150Z 30003KT 9999 FEW018 04/M00 Q1013 WNW (300°) 3.5mph 4°C 0°C
9/12/19 11:20 EGPO 091120Z 29007KT 9999 FEW018 03/00 Q1013 WNW (290°) 8.1mph 3°C 0°C
9/12/19 10:50 EGPO 091050Z 30006KT 9999 FEW018 03/00 Q1012 WNW (300°) 6.9mph 3°C 0°C
9/12/19 10:20 EGPO 091020Z 32008KT 9999 VCSH FEW018 SCT044 05/00 Q1012 VCSH NW (320°) 9.2mph 5°C 0°C
9/12/19 09:50 EGPO 090950Z 28006KT 9999 VCSH FEW018 SCT044 04/00 Q1011 VCSH W (280°) 6.9mph 4°C 0°C
9/12/19 09:20 EGPO 090920Z 32008KT 9999 -SHRA FEW012 FEW016CB SCT020 04/00 Q1011 -SHRA NW (320°) 9.2mph 4°C 0°C
9/12/19 08:20 EGPO 090820Z 32007KT 9999 FEW012 FEW016CB 03/M01 Q1009 NW (320°) 8.1mph 3°C -1°C
9/12/19 07:50 EGPO 090750Z 32010KT 9999 FEW012 FEW016CB 04/M01 Q1008 NW (320°) 11.5mph 4°C -1°C
9/12/19 07:20 EGPO 090720Z 32012KT 9999 FEW012 FEW016CB 04/M01 Q1007 NW (320°) 13.8mph 4°C -1°C
9/12/19 06:20 EGPO 090620Z 30004KT 9999 VCSH FEW012 FEW016CB SCT045 03/00 Q1006 VCSH WNW (300°) 4.6mph 3°C 0°C
9/12/19 05:50 EGPO 090550Z 36016KT 9999 VCSH FEW012 FEW016CB SCT048 04/01 Q1005 VCSH N (360°) 18.4mph 4°C 1°C
9/12/19 05:20 EGPO 090520Z AUTO 34014KT 9999 FEW035/// 04/01 Q1004 NNW (340°) 16.1mph 4°C 1°C
9/12/19 04:20 EGPO 090420Z AUTO 34012KT 9999 NCD 04/00 Q1002 NNW (340°) 13.8mph 4°C 0°C
9/12/19 03:50 EGPO 090350Z AUTO 34013KT 9999 NCD 04/01 Q1001 NNW (340°) 15.0mph 4°C 1°C
9/12/19 03:20 EGPO 090320Z AUTO 36017KT 9999 FEW026/// SCT035/// BKN044/// 05/02 Q1000 N (360°) 19.6mph 5°C 2°C
9/12/19 02:50 EGPO 090250Z AUTO 33015KT 9999 FEW020/// SCT032/// BKN047/// 05/01 Q0999 NNW (330°) 17.3mph 5°C 1°C
9/12/19 02:20 EGPO 090220Z AUTO 34014KT 9999 FEW046/// 05/01 Q0997 NNW (340°) 16.1mph 5°C 1°C
9/12/19 01:50 EGPO 090150Z AUTO 34012KT 9999 FEW035/// 05/02 Q0996 NNW (340°) 13.8mph 5°C 2°C
9/12/19 01:20 EGPO 090120Z AUTO 34016KT 9999 FEW028/// 06/02 Q0995 NNW (340°) 18.4mph 6°C 2°C
9/12/19 00:50 EGPO 090050Z AUTO 34018KT 9999 NCD 05/03 Q0993 NNW (340°) 20.7mph 5°C 3°C
9/12/19 00:20 EGPO 090020Z AUTO 34018KT 9999 FEW045/// 06/02 Q0992 NNW (340°) 20.7mph 6°C 2°C
8/12/19 23:50 EGPO 082350Z AUTO 35019KT 9999 -RA FEW029/// SCT046/// 06/02 Q0990 RERA -RA N (350°) 21.9mph 6°C 2°C
8/12/19 23:20 EGPO 082320Z AUTO 35019G29KT 9999 FEW035/// 07/02 Q0989 N (350°) 21.9mph 33.4mph 7°C 2°C
8/12/19 22:50 EGPO 082250Z AUTO 35018G29KT 9999 FEW028/// SCT042/// 06/03 Q0987 N (350°) 20.7mph 33.4mph 6°C 3°C
8/12/19 22:20 EGPO 082220Z AUTO 35024G36KT 9999 SCT037/// 06/03 Q0985 N (350°) 27.6mph 41.4mph 6°C 3°C
8/12/19 21:50 EGPO 082150Z AUTO 36023G38KT 9999 -RA SCT024/// BKN038/// 06/03 Q0984 -RA N (360°) 26.5mph 43.7mph 6°C 3°C
8/12/19 20:50 EGPO 082050Z AUTO 35013KT 9999 SCT022/// BKN035/// 06/04 Q0981 N (350°) 15.0mph 6°C 4°C
8/12/19 20:20 EGPO 082020Z AUTO 35018KT 9999 SCT022/// BKN039/// 06/03 Q0979 N (350°) 20.7mph 6°C 3°C
8/12/19 19:50 EGPO 081950Z AUTO 35010KT 9999 SCT024/// BKN031/// BKN041/// 06/04 Q0978 N (350°) 11.5mph 6°C 4°C
8/12/19 19:20 EGPO 081920Z AUTO 33008KT 9999 FEW007/// SCT020/// BKN034/// 05/04 Q0977 RERA NNW (330°) 9.2mph 5°C 4°C
8/12/19 18:50 EGPO 081850Z 32011KT 9999 -SHRA SCT012CB SCT021 BKN032 05/04 Q0976 -SHRA NW (320°) 12.7mph 5°C 4°C
8/12/19 18:20 EGPO 081820Z 27006KT 9999 VCSH FEW012CB FEW022 SCT035 05/03 Q0974 VCSH W (270°) 6.9mph 5°C 3°C
8/12/19 17:50 EGPO 081750Z 31006KT 9999 -SHRA SCT012CB SCT027 05/03 Q0974 -SHRA NW (310°) 6.9mph 5°C 3°C
8/12/19 17:20 EGPO 081720Z 29003KT 9999 VCSH FEW012CB FEW020 04/03 Q0973 VCSH WNW (290°) 3.5mph 4°C 3°C
8/12/19 16:50 EGPO 081650Z 26006KT 9999 VCSH FEW012CB FEW026 04/03 Q0972 VCSH W (260°) 6.9mph 4°C 3°C
8/12/19 16:20 EGPO 081620Z 25006KT 9999 VCSH SCT012CB FEW026 04/03 Q0971 VCSH WSW (250°) 6.9mph 4°C 3°C
8/12/19 15:50 EGPO 081550Z 23005KT 9999 VCSH FEW012CB FEW016 SCT026 04/03 Q0971 VCSH SW (230°) 5.8mph 4°C 3°C
8/12/19 15:20 EGPO 081520Z 24005KT 9999 FEW012CB FEW016 05/03 Q0970 WSW (240°) 5.8mph 5°C 3°C
8/12/19 14:50 EGPO 081450Z 24005KT 9999 FEW012CB FEW016 05/04 Q0969 WSW (240°) 5.8mph 5°C 4°C
8/12/19 14:20 EGPO 081420Z 25004KT 9999 FEW012CB SCT016 05/04 Q0969 WSW (250°) 4.6mph 5°C 4°C
8/12/19 13:50 EGPO 081350Z 24012KT 9999 VCSH FEW008 SCT016CB BKN034 06/04 Q0969 VCSH WSW (240°) 13.8mph 6°C 4°C
8/12/19 13:20 EGPO 081320Z 23010KT 9999 VCSH FEW006 SCT014CB BKN034 05/04 Q0969 VCSH SW (230°) 11.5mph 5°C 4°C
8/12/19 12:50 EGPO 081250Z 24013KT 9999 5000W -SHRA FEW006 SCT014CB BKN034 07/05 Q0969 -SHRA WSW (240°) 15.0mph 7°C 5°C
8/12/19 12:20 EGPO 081220Z 23011KT 9999 VCSH FEW006 SCT014CB BKN034 06/04 Q0969 VCSH SW (230°) 12.7mph 6°C 4°C
8/12/19 11:50 EGPO 081150Z 22015KT 9999 -SHRA FEW006 SCT014CB BKN034 07/04 Q0970 -SHRA SW (220°) 17.3mph 7°C 4°C
8/12/19 11:20 EGPO 081120Z 21014KT 9999 -SHRA SCT018CB SCT026 BKN040 06/04 Q0970 -SHRA SSW (210°) 16.1mph 6°C 4°C
8/12/19 10:20 EGPO 081020Z AUTO 22014G24KT 9999 FEW014/// SCT024/// BKN036/// 06/04 Q0971 SW (220°) 16.1mph 27.6mph 6°C 4°C